Time;durP1;ratioP1;P1;durP2;ratioP2;P2;SDS_P1;SDS_P2;PMS_P1;PMS_P2;Temp;Humidity;BMP_temperature;BMP_pressure;BME280_temperature;BME280_humidity;BME280_pressure;Samples;Min_cycle;Max_cycle;Signal;HPM_P1;HPM_P2
2021/10/05 00:00:15;;;;;;;0.10;0.10;;;13.60;99.90;;;;;;4995162;28;20058;-75
2021/10/05 00:02:41;;;;;;;0.20;0.20;;;13.50;99.90;;;;;;4995220;28;20498;-75
2021/10/05 00:05:08;;;;;;;0.10;0.10;;;13.40;99.90;;;;;;4977590;28;20061;-75
2021/10/05 00:07:34;;;;;;;0.40;0.40;;;13.40;99.90;;;;;;4995246;28;20038;-75
2021/10/05 00:10:00;;;;;;;0.30;0.30;;;13.40;99.90;;;;;;4977580;28;20061;-75
2021/10/05 00:12:25;;;;;;;0.10;0.10;;;13.50;99.90;;;;;;4977620;28;20030;-75
2021/10/05 00:14:51;;;;;;;1.75;1.45;;;13.40;99.90;;;;;;4994657;28;20121;-75
2021/10/05 00:17:21;;;;;;;0.10;0.10;;;13.60;99.90;;;;;;4995349;28;20022;-75
2021/10/05 00:19:47;;;;;;;0.55;0.55;;;13.60;99.90;;;;;;4995001;28;20034;-75
2021/10/05 00:22:14;;;;;;;0.60;0.60;;;13.60;99.90;;;;;;4977359;28;20088;-75
2021/10/05 00:24:40;;;;;;;0.13;0.13;;;13.80;99.90;;;;;;4977321;28;20022;-75
2021/10/05 00:27:06;;;;;;;0.30;0.30;;;13.80;99.90;;;;;;4994757;28;20029;-75
2021/10/05 00:29:32;;;;;;;0.85;0.85;;;13.70;99.90;;;;;;4977399;28;20026;-75
2021/10/05 00:31:59;;;;;;;0.10;0.10;;;13.70;99.90;;;;;;4977276;28;20030;-75
2021/10/05 00:34:25;;;;;;;0.40;0.40;;;13.80;99.90;;;;;;4977108;28;20136;-75
2021/10/05 00:36:51;;;;;;;0.57;0.57;;;13.60;99.90;;;;;;4993465;28;20440;-75
2021/10/05 00:39:16;;;;;;;0.20;0.20;;;13.50;99.90;;;;;;4994491;28;20085;-75
2021/10/05 00:41:42;;;;;;;0.20;0.20;;;13.60;99.90;;;;;;4994491;28;20030;-75
2021/10/05 00:44:08;;;;;;;0.10;0.10;;;13.70;99.90;;;;;;4994453;28;20041;-75
2021/10/05 00:46:34;;;;;;;4.47;2.70;;;13.80;99.90;;;;;;4976856;28;20022;-75
2021/10/05 00:49:01;;;;;;;0.10;0.10;;;13.60;99.90;;;;;;4994367;28;20033;-75
2021/10/05 00:51:27;;;;;;;1.80;1.35;;;13.60;99.90;;;;;;4994335;28;20019;-75
2021/10/05 00:53:53;;;;;;;0.20;0.20;;;13.60;99.90;;;;;;4976861;28;20068;-75
2021/10/05 00:56:23;;;;;;;0.20;0.20;;;13.70;99.90;;;;;;4993967;28;20030;-75
2021/10/05 00:58:49;;;;;;;0.10;0.10;;;13.70;99.90;;;;;;4994219;28;20408;-75
2021/10/05 01:01:16;;;;;;;1.27;1.20;;;13.70;99.90;;;;;;4993981;28;20025;-75
2021/10/05 01:03:42;;;;;;;0.70;0.55;;;13.70;99.90;;;;;;4960564;28;20027;-75
2021/10/05 01:06:09;;;;;;;0.10;0.10;;;13.70;99.90;;;;;;4993988;28;20022;-75
2021/10/05 01:08:34;;;;;;;0.10;0.10;;;13.70;99.90;;;;;;4994010;28;20070;-75
2021/10/05 01:11:00;;;;;;;0.20;0.20;;;13.70;99.90;;;;;;4994043;28;20054;-75
2021/10/05 01:13:27;;;;;;;0.85;0.85;;;13.70;99.90;;;;;;4993866;28;20026;-75
2021/10/05 01:15:53;;;;;;;1.17;0.90;;;13.70;99.90;;;;;;4993472;28;20037;-75
2021/10/05 01:18:19;;;;;;;0.10;0.10;;;13.80;99.90;;;;;;4976377;28;20022;-75
2021/10/05 01:21:06;;;;;;;0.10;0.10;;;13.80;99.90;;;;;;4976424;28;20022;-75
2021/10/05 01:23:33;;;;;;;0.10;0.10;;;13.70;99.90;;;;;;4993719;28;20029;-75
2021/10/05 01:25:59;;;;;;;0.10;0.10;;;13.70;99.90;;;;;;4976296;28;20021;-75
2021/10/05 01:28:26;;;;;;;0.10;0.10;;;13.80;99.90;;;;;;4976012;28;20104;-75
2021/10/05 01:30:52;;;;;;;0.10;0.10;;;13.90;99.90;;;;;;4993561;28;20030;-75
2021/10/05 01:33:20;;;;;;;0.00;0.00;;;13.90;99.90;;;;;;4993592;28;20030;-75
2021/10/05 01:35:46;;;;;;;0.43;0.43;;;13.80;99.90;;;;;;4959843;28;20026;-75
2021/10/05 01:38:12;;;;;;;0.10;0.10;;;13.60;99.90;;;;;;4959935;28;20026;-75
2021/10/05 01:40:38;;;;;;;0.30;0.30;;;13.60;99.90;;;;;;4975949;28;20482;-76
2021/10/05 01:43:04;;;;;;;2.00;1.17;;;13.70;99.90;;;;;;4993458;28;20101;-75
2021/10/05 01:45:30;;;;;;;0.10;0.10;;;13.70;99.90;;;;;;4975678;28;20049;-75
2021/10/05 01:47:56;;;;;;;0.10;0.10;;;13.50;99.90;;;;;;4975466;28;20097;-75
2021/10/05 01:50:22;;;;;;;0.73;0.73;;;13.50;99.90;;;;;;4993225;28;20106;-75
2021/10/05 01:52:49;;;;;;;0.10;0.10;;;13.60;99.90;;;;;;4993196;28;20029;-75
2021/10/05 01:55:16;;;;;;;0.20;0.20;;;13.80;99.90;;;;;;4975548;28;20026;-75
2021/10/05 01:57:42;;;;;;;0.20;0.20;;;13.80;99.90;;;;;;4959415;28;20040;-75
2021/10/05 02:00:09;;;;;;;2.95;1.13;;;13.80;99.90;;;;;;4959487;28;20109;-76
2021/10/05 02:02:34;;;;;;;0.10;0.10;;;13.80;99.90;;;;;;4975695;28;20026;-75
2021/10/05 02:05:00;;;;;;;0.20;0.20;;;13.70;99.90;;;;;;4992913;28;20026;-75
2021/10/05 02:07:26;;;;;;;0.35;0.35;;;13.80;99.90;;;;;;4993005;28;20022;-75
2021/10/05 02:09:52;;;;;;;0.10;0.10;;;13.90;99.90;;;;;;4992918;28;20390;-76
2021/10/05 02:12:19;;;;;;;0.10;0.10;;;13.90;99.90;;;;;;4992906;28;20030;-75
2021/10/05 02:14:46;;;;;;;0.10;0.10;;;13.90;99.90;;;;;;4959048;28;20112;-75
2021/10/05 02:17:13;;;;;;;0.10;0.10;;;13.70;99.90;;;;;;4992846;28;20026;-75
2021/10/05 02:19:39;;;;;;;0.10;0.10;;;13.70;99.90;;;;;;4975437;28;20030;-75
2021/10/05 02:22:06;;;;;;;0.20;0.20;;;13.80;99.90;;;;;;4975309;28;20037;-75
2021/10/05 02:24:42;;;;;;;1.85;1.48;;;13.80;99.90;;;;;;4992533;28;20062;-75
2021/10/05 02:27:14;;;;;;;0.10;0.10;;;13.80;99.90;;;;;;4992703;28;20406;-75
2021/10/05 02:29:40;;;;;;;3.83;3.00;;;13.80;99.90;;;;;;4975195;28;20026;-75
2021/10/05 02:32:08;;;;;;;0.35;0.35;;;13.70;99.90;;;;;;4992854;28;20038;-75
2021/10/05 02:34:35;;;;;;;0.20;0.20;;;13.60;99.90;;;;;;4958794;28;20494;-75
2021/10/05 02:37:01;;;;;;;0.10;0.10;;;13.70;99.90;;;;;;4975146;28;20030;-75
2021/10/05 02:39:27;;;;;;;0.20;0.20;;;13.70;99.90;;;;;;4992621;28;20034;-75
2021/10/05 02:41:52;;;;;;;0.10;0.10;;;13.70;99.90;;;;;;4992492;28;20026;-75
2021/10/05 02:44:18;;;;;;;0.35;0.35;;;13.80;99.90;;;;;;4958856;28;20031;-75
2021/10/05 02:46:45;;;;;;;0.17;0.17;;;13.70;99.90;;;;;;4992372;28;20073;-75
2021/10/05 02:49:11;;;;;;;0.10;0.10;;;13.70;99.90;;;;;;4974963;28;20023;-75
2021/10/05 02:51:36;;;;;;;0.10;0.10;;;13.60;99.90;;;;;;4992376;28;20564;-75
2021/10/05 02:54:02;;;;;;;0.17;0.17;;;13.50;99.90;;;;;;4974890;28;20030;-75
2021/10/05 02:56:28;;;;;;;0.17;0.17;;;13.50;99.90;;;;;;4992107;28;20030;-75
2021/10/05 02:58:54;;;;;;;0.55;0.55;;;13.60;99.90;;;;;;4975481;28;20479;-75
2021/10/05 03:01:20;;;;;;;0.20;0.20;;;13.50;99.90;;;;;;4996320;28;20027;-75
2021/10/05 03:03:45;;;;;;;0.10;0.10;;;13.60;99.90;;;;;;4996316;28;20182;-75
2021/10/05 03:06:11;;;;;;;0.10;0.10;;;13.40;99.90;;;;;;4978830;28;20030;-75
2021/10/05 03:08:40;;;;;;;0.22;0.22;;;13.40;99.90;;;;;;4996126;28;20019;-75
2021/10/05 03:11:06;;;;;;;0.10;0.10;;;13.30;99.90;;;;;;4962650;28;20030;-75
2021/10/05 03:13:35;;;;;;;0.10;0.10;;;13.40;99.90;;;;;;4978723;28;20536;-75
2021/10/05 03:16:03;;;;;;;0.20;0.20;;;13.50;99.90;;;;;;4995769;28;20022;-75
2021/10/05 03:18:30;;;;;;;0.10;0.10;;;13.50;99.90;;;;;;4996179;28;20027;-75
2021/10/05 03:20:56;;;;;;;0.20;0.20;;;13.60;99.90;;;;;;4978526;28;20394;-75
2021/10/05 03:23:21;;;;;;;0.55;0.22;;;13.70;99.90;;;;;;4995956;28;20019;-75
2021/10/05 03:25:47;;;;;;;0.10;0.10;;;13.70;99.90;;;;;;4978304;28;20113;-75
2021/10/05 03:28:13;;;;;;;0.10;0.10;;;13.40;99.90;;;;;;4995788;28;20030;-75
2021/10/05 03:30:39;;;;;;;0.47;0.47;;;13.50;99.90;;;;;;4995984;28;20030;-75
2021/10/05 03:33:04;;;;;;;0.10;0.10;;;13.40;99.90;;;;;;4995864;28;20026;-75
2021/10/05 03:35:30;;;;;;;1.13;1.13;;;13.20;99.90;;;;;;4961996;28;20033;-75
2021/10/05 03:37:56;;;;;;;0.10;0.10;;;13.20;99.90;;;;;;4962107;28;20030;-75
2021/10/05 03:40:22;;;;;;;0.10;0.10;;;13.30;99.90;;;;;;4978061;28;20034;-75
2021/10/05 03:42:48;;;;;;;0.00;0.00;;;13.40;99.90;;;;;;4995606;28;20023;-75
2021/10/05 03:45:14;;;;;;;22.77;21.23;;;13.50;99.90;;;;;;4995608;28;20030;-75
2021/10/05 03:47:39;;;;;;;0.60;0.60;;;13.50;99.90;;;;;;4978127;28;20406;-75
2021/10/05 03:50:09;;;;;;;1.00;1.00;;;13.40;99.90;;;;;;4995461;28;20498;-75
2021/10/05 03:52:35;;;;;;;0.20;0.20;;;13.40;99.90;;;;;;4995490;28;20030;-75
2021/10/05 03:55:01;;;;;;;0.38;0.38;;;13.30;99.90;;;;;;4995319;28;20080;-75
2021/10/05 03:57:27;;;;;;;0.10;0.10;;;13.10;99.90;;;;;;4977607;28;20043;-75
2021/10/05 03:59:53;;;;;;;0.00;0.00;;;13.10;99.90;;;;;;4995384;28;20628;-75
2021/10/05 04:02:18;;;;;;;0.10;0.10;;;13.10;99.90;;;;;;4977793;28;20042;-75
2021/10/05 04:04:44;;;;;;;1.48;1.17;;;13.10;99.90;;;;;;4977452;28;20018;-75
2021/10/05 04:07:10;;;;;;;0.10;0.10;;;13.20;99.90;;;;;;4995026;28;20034;-75
2021/10/05 04:09:35;;;;;;;0.10;0.10;;;13.20;99.90;;;;;;4994936;28;20022;-75
2021/10/05 04:12:01;;;;;;;4.85;2.08;;;13.20;99.90;;;;;;4994937;28;20054;-75
2021/10/05 04:14:27;;;;;;;0.17;0.17;;;13.20;99.90;;;;;;4977421;28;20510;-75
2021/10/05 04:16:53;;;;;;;1.30;1.30;;;13.00;99.90;;;;;;4995069;28;20041;-75
2021/10/05 04:19:18;;;;;;;0.10;0.10;;;13.10;99.90;;;;;;4994913;28;20027;-75
2021/10/05 04:21:44;;;;;;;0.10;0.10;;;13.10;99.90;;;;;;4977310;28;20026;-75
2021/10/05 04:24:10;;;;;;;0.10;0.10;;;13.10;99.90;;;;;;4994894;28;20363;-75
2021/10/05 04:26:35;;;;;;;0.10;0.10;;;13.20;99.90;;;;;;4994913;28;20466;-75
2021/10/05 04:29:01;;;;;;;0.10;0.10;;;13.40;99.90;;;;;;4994671;28;20019;-75
2021/10/05 04:31:27;;;;;;;1.33;0.77;;;13.20;99.90;;;;;;4994813;28;20092;-75
2021/10/05 04:33:53;;;;;;;0.17;0.17;;;13.10;99.90;;;;;;4994712;28;20034;-75
2021/10/05 04:36:19;;;;;;;0.20;0.20;;;13.00;99.90;;;;;;4994517;28;20030;-75
2021/10/05 04:38:44;;;;;;;0.30;0.30;;;13.00;99.90;;;;;;4994508;28;20030;-75
2021/10/05 04:41:10;;;;;;;0.10;0.10;;;13.10;99.90;;;;;;4994595;28;20058;-75
2021/10/05 04:43:36;;;;;;;0.60;0.60;;;13.00;99.90;;;;;;4977077;28;20022;-75
2021/10/05 04:46:01;;;;;;;0.20;0.20;;;12.90;99.90;;;;;;4994319;28;20033;-75
2021/10/05 04:48:27;;;;;;;0.20;0.20;;;13.00;99.90;;;;;;4994406;28;20034;-75
2021/10/05 04:50:53;;;;;;;0.10;0.10;;;13.10;99.90;;;;;;4976834;28;20034;-75
2021/10/05 04:53:19;;;;;;;0.20;0.20;;;13.20;99.90;;;;;;4994403;28;20121;-75
2021/10/05 04:55:45;;;;;;;0.13;0.13;;;13.20;99.90;;;;;;4994183;28;20026;-75
2021/10/05 04:58:11;;;;;;;0.10;0.10;;;13.20;99.90;;;;;;4994313;28;20129;-75
2021/10/05 05:00:37;;;;;;;0.10;0.10;;;13.40;99.90;;;;;;4993961;28;20030;-75
2021/10/05 05:03:03;;;;;;;5.57;2.78;;;13.50;99.90;;;;;;4976641;28;20031;-75
2021/10/05 05:05:29;;;;;;;3.72;1.48;;;13.30;99.90;;;;;;4976259;28;20033;-75
2021/10/05 05:08:02;;;;;;;1.40;1.30;;;13.20;99.90;;;;;;4976325;28;20026;-75
2021/10/05 05:10:29;;;;;;;0.10;0.10;;;13.10;99.90;;;;;;4994133;28;20018;-75
2021/10/05 05:12:55;;;;;;;0.68;0.68;;;13.10;99.90;;;;;;4976439;28;20022;-75
2021/10/05 05:15:21;;;;;;;1.75;1.15;;;12.90;99.90;;;;;;4976017;28;20176;-75
2021/10/05 05:17:47;;;;;;;0.10;0.10;;;12.80;99.90;;;;;;4994033;28;20026;-75
2021/10/05 05:20:13;;;;;;;0.20;0.20;;;12.80;99.90;;;;;;4993771;28;20041;-75
2021/10/05 05:22:39;;;;;;;0.10;0.10;;;12.80;99.90;;;;;;4975531;28;20030;-75
2021/10/05 05:25:06;;;;;;;0.10;0.10;;;12.60;99.90;;;;;;4993676;28;20066;-75
2021/10/05 05:27:32;;;;;;;0.55;0.20;;;12.70;99.90;;;;;;4993995;28;20026;-75
2021/10/05 05:29:58;;;;;;;1.73;0.60;;;12.80;99.90;;;;;;4976056;28;20451;-75
2021/10/05 05:32:24;;;;;;;0.47;0.47;;;12.80;99.90;;;;;;4993626;28;20089;-75
2021/10/05 05:34:50;;;;;;;0.57;0.57;;;12.70;99.90;;;;;;4993324;28;20030;-75
2021/10/05 05:37:16;;;;;;;3.13;2.30;;;12.70;99.90;;;;;;4975975;28;20022;-75
2021/10/05 05:39:43;;;;;;;1.67;1.20;;;12.70;99.90;;;;;;4975877;28;20046;-75
2021/10/05 05:42:10;;;;;;;0.10;0.10;;;12.70;99.90;;;;;;4993301;28;20097;-75
2021/10/05 05:44:36;;;;;;;0.10;0.10;;;12.50;99.90;;;;;;4992883;28;20014;-75
2021/10/05 05:47:02;;;;;;;0.63;0.63;;;12.60;99.90;;;;;;4978317;28;20045;-75
2021/10/05 05:49:28;;;;;;;7.00;3.50;;;12.60;99.90;;;;;;4997983;28;20018;-75
2021/10/05 05:51:53;;;;;;;0.10;0.10;;;12.40;99.90;;;;;;5010294;28;20473;-75
2021/10/05 05:54:19;;;;;;;7.95;3.63;;;12.40;99.90;;;;;;4993079;28;20508;-75
2021/10/05 05:56:45;;;;;;;0.10;0.10;;;12.50;99.90;;;;;;4992778;28;20498;-75
2021/10/05 05:59:11;;;;;;;0.73;0.73;;;12.40;99.90;;;;;;4975393;28;20030;-75
2021/10/05 06:01:37;;;;;;;1.23;1.13;;;12.40;99.90;;;;;;4963350;28;20030;-75
2021/10/05 06:04:03;;;;;;;1.00;0.95;;;12.50;99.90;;;;;;4977778;28;20335;-75
2021/10/05 06:06:32;;;;;;;0.10;0.10;;;12.40;99.90;;;;;;4975207;28;20035;-75
2021/10/05 06:09:00;;;;;;;2.38;0.68;;;12.50;99.90;;;;;;5002614;28;20062;-75
2021/10/05 06:11:37;;;;;;;1.95;1.35;;;12.60;99.90;;;;;;5012400;28;20100;-75
2021/10/05 06:14:03;;;;;;;0.20;0.20;;;12.60;99.90;;;;;;5012508;28;20073;-75
2021/10/05 06:16:28;;;;;;;3.15;1.67;;;12.60;99.90;;;;;;5011306;28;20021;-75
2021/10/05 06:18:54;;;;;;;1.55;1.33;;;12.50;99.90;;;;;;4992805;28;20030;-75
2021/10/05 06:21:20;;;;;;;0.47;0.47;;;12.50;99.90;;;;;;4992600;28;20054;-75
2021/10/05 06:23:46;;;;;;;3.63;1.92;;;12.50;99.90;;;;;;5011166;28;20018;-75
2021/10/05 06:26:12;;;;;;;1.98;0.75;;;12.50;99.90;;;;;;5011830;28;20053;-75
2021/10/05 06:28:38;;;;;;;5.53;1.65;;;12.50;99.90;;;;;;4978101;28;20028;-75
2021/10/05 06:31:04;;;;;;;0.10;0.10;;;12.40;99.90;;;;;;5012116;28;20034;-75
2021/10/05 06:33:30;;;;;;;0.10;0.10;;;12.40;99.90;;;;;;5015827;28;20034;-77
2021/10/05 06:35:56;;;;;;;2.08;1.85;;;12.50;99.90;;;;;;4998403;28;20021;-77
2021/10/05 06:38:22;;;;;;;5.03;2.10;;;12.50;99.90;;;;;;5011952;28;20030;-77
2021/10/05 06:40:48;;;;;;;0.10;0.10;;;12.40;99.90;;;;;;4965802;28;20035;-77
2021/10/05 06:43:14;;;;;;;0.03;0.03;;;12.50;99.90;;;;;;4956058;28;20027;-77
2021/10/05 06:45:40;;;;;;;0.10;0.10;;;12.70;99.90;;;;;;4985888;28;20034;-77
2021/10/05 06:48:08;;;;;;;0.85;0.85;;;12.80;99.90;;;;;;4992344;28;20031;-77
2021/10/05 06:50:34;;;;;;;0.10;0.10;;;12.70;99.90;;;;;;4956812;28;20109;-77
2021/10/05 06:53:01;;;;;;;1.35;0.82;;;12.90;99.90;;;;;;4939743;28;20027;-77
2021/10/05 06:55:27;;;;;;;0.10;0.10;;;12.90;99.90;;;;;;4972701;28;20023;-77
2021/10/05 06:57:53;;;;;;;0.00;0.00;;;12.90;99.90;;;;;;4981130;28;20034;-77
2021/10/05 07:00:19;;;;;;;0.52;0.52;;;13.00;99.90;;;;;;4974891;28;20105;-76
2021/10/05 07:02:47;;;;;;;0.20;0.20;;;12.90;99.90;;;;;;4994426;28;20471;-76
2021/10/05 07:05:19;;;;;;;0.10;0.10;;;12.70;99.90;;;;;;4991751;28;20048;-76
2021/10/05 07:07:47;;;;;;;9.85;4.13;;;12.60;99.90;;;;;;5008053;28;20351;-76
2021/10/05 07:10:15;;;;;;;0.10;0.10;;;12.40;99.90;;;;;;4994263;28;20022;-74
2021/10/05 07:12:41;;;;;;;8.85;4.68;;;12.40;99.90;;;;;;5011560;28;20100;-74
2021/10/05 07:15:08;;;;;;;3.15;1.00;;;12.30;99.90;;;;;;4993764;28;20450;-74
2021/10/05 07:17:34;;;;;;;3.17;1.95;;;12.30;99.90;;;;;;4986288;28;20121;-75
2021/10/05 07:20:01;;;;;;;0.10;0.10;;;12.30;99.90;;;;;;4990077;28;20451;-75
2021/10/05 07:22:27;;;;;;;6.82;1.33;;;12.30;99.90;;;;;;4991591;28;20566;-75
2021/10/05 07:24:53;;;;;;;0.80;0.52;;;12.40;99.90;;;;;;4992116;28;20018;-75
2021/10/05 07:27:19;;;;;;;5.22;1.65;;;12.30;99.90;;;;;;4991811;28;20041;-75
2021/10/05 07:29:44;;;;;;;0.10;0.10;;;12.30;99.90;;;;;;4991776;28;20019;-75
2021/10/05 07:32:11;;;;;;;0.88;0.80;;;12.20;99.90;;;;;;4991938;28;20076;-75
2021/10/05 07:34:37;;;;;;;1.38;0.82;;;12.30;99.90;;;;;;4991748;28;20037;-75
2021/10/05 07:37:03;;;;;;;0.47;0.47;;;12.40;99.90;;;;;;4979997;28;20129;-75
2021/10/05 07:39:28;;;;;;;0.77;0.55;;;12.50;99.90;;;;;;4970425;28;20121;-75
2021/10/05 07:41:54;;;;;;;0.38;0.38;;;12.70;99.90;;;;;;4972377;28;20026;-75
2021/10/05 07:44:20;;;;;;;0.55;0.55;;;12.80;99.90;;;;;;4947289;28;20022;-74
2021/10/05 07:46:46;;;;;;;0.10;0.10;;;12.90;99.90;;;;;;4994672;28;20117;-74
2021/10/05 07:49:12;;;;;;;1.55;1.05;;;12.90;99.90;;;;;;4995190;28;20019;-74
2021/10/05 07:51:38;;;;;;;0.28;0.28;;;12.90;99.90;;;;;;4994948;28;20367;-74
2021/10/05 07:54:05;;;;;;;0.63;0.43;;;13.00;99.90;;;;;;4977557;28;20034;-74
2021/10/05 07:56:32;;;;;;;2.28;1.50;;;13.10;99.90;;;;;;4977304;28;20026;-74
2021/10/05 07:58:58;;;;;;;0.20;0.20;;;13.00;99.90;;;;;;4993598;28;20399;-74
2021/10/05 08:01:24;;;;;;;1.42;1.33;;;13.10;99.90;;;;;;4993676;28;20125;-74
2021/10/05 08:03:50;;;;;;;2.00;1.85;;;13.10;99.90;;;;;;5002836;28;20026;-74
2021/10/05 08:06:16;;;;;;;0.15;0.15;;;12.90;99.90;;;;;;4992481;28;20022;-74
2021/10/05 08:08:42;;;;;;;2.47;0.80;;;12.90;99.90;;;;;;4976675;28;20023;-74
2021/10/05 08:11:08;;;;;;;4.75;1.75;;;12.90;99.90;;;;;;4994543;28;20095;-74
2021/10/05 08:13:33;;;;;;;1.10;0.55;;;13.00;99.90;;;;;;4977316;28;20038;-74
2021/10/05 08:15:59;;;;;;;0.10;0.10;;;13.00;99.90;;;;;;4960941;28;20022;-74
2021/10/05 08:18:25;;;;;;;0.90;0.73;;;12.90;99.90;;;;;;4961037;28;20030;-74
2021/10/05 08:20:51;;;;;;;0.95;0.85;;;13.00;99.90;;;;;;4994477;28;20026;-74
2021/10/05 08:23:17;;;;;;;0.10;0.10;;;12.90;99.90;;;;;;4977038;28;20026;-74
2021/10/05 08:25:43;;;;;;;0.47;0.47;;;12.90;99.90;;;;;;4976869;28;20141;-74
2021/10/05 08:28:10;;;;;;;0.68;0.68;;;13.10;99.90;;;;;;4960730;28;20018;-74
2021/10/05 08:30:36;;;;;;;0.10;0.10;;;13.10;99.90;;;;;;4993958;28;20028;-74
2021/10/05 08:33:03;;;;;;;1.08;0.85;;;13.10;99.90;;;;;;4993905;28;20449;-74
2021/10/05 08:35:29;;;;;;;0.10;0.10;;;13.10;99.90;;;;;;4994302;28;20022;-74
2021/10/05 08:37:56;;;;;;;0.10;0.10;;;13.10;99.90;;;;;;4994483;28;20029;-74
2021/10/05 08:40:23;;;;;;;0.45;0.30;;;13.10;99.90;;;;;;4976804;28;20084;-74
2021/10/05 08:42:49;;;;;;;1.50;1.45;;;13.20;99.90;;;;;;4994213;28;20531;-74
2021/10/05 08:45:15;;;;;;;0.10;0.10;;;13.20;99.90;;;;;;4994288;28;20026;-74
2021/10/05 08:47:41;;;;;;;1.00;0.82;;;13.30;99.90;;;;;;4994174;28;20038;-74
2021/10/05 08:50:08;;;;;;;0.10;0.10;;;13.40;99.90;;;;;;4976781;28;20031;-74
2021/10/05 08:52:34;;;;;;;1.75;1.65;;;13.40;99.90;;;;;;4960649;28;20030;-74
2021/10/05 08:55:01;;;;;;;4.63;3.20;;;13.40;99.90;;;;;;4993979;28;20022;-76
2021/10/05 08:57:28;;;;;;;0.15;0.15;;;13.20;99.90;;;;;;4993156;28;20030;-74
2021/10/05 08:59:53;;;;;;;0.10;0.10;;;13.10;99.90;;;;;;4976460;28;20518;-75
2021/10/05 09:02:19;;;;;;;3.63;3.20;;;13.00;99.90;;;;;;4994040;28;20098;-74
2021/10/05 09:04:47;;;;;;;0.75;0.75;;;13.00;99.90;;;;;;4960244;28;20022;-74
2021/10/05 09:07:22;;;;;;;0.30;0.30;;;13.00;99.90;;;;;;4976183;28;20054;-74
2021/10/05 09:10:00;;;;;;;0.85;0.85;;;13.00;99.90;;;;;;4976396;28;20029;-74
2021/10/05 09:12:27;;;;;;;2.33;1.55;;;13.10;99.90;;;;;;4994092;28;20026;-74
2021/10/05 09:14:54;;;;;;;1.17;1.02;;;13.30;99.90;;;;;;4976406;28;20057;-74
2021/10/05 09:17:22;;;;;;;1.63;1.58;;;13.30;99.90;;;;;;4993802;28;20038;-74
2021/10/05 09:19:49;;;;;;;0.10;0.10;;;13.30;99.90;;;;;;4976360;28;20080;-75
2021/10/05 09:22:17;;;;;;;0.20;0.20;;;13.40;99.90;;;;;;4993730;28;20027;-75
2021/10/05 09:24:46;;;;;;;0.75;0.75;;;13.50;99.90;;;;;;4993471;28;20022;-75
2021/10/05 09:27:12;;;;;;;2.75;1.50;;;13.60;99.90;;;;;;4993469;28;20386;-75
2021/10/05 09:29:39;;;;;;;0.13;0.13;;;13.70;99.90;;;;;;4960354;28;20033;-75
2021/10/05 09:32:09;;;;;;;0.22;0.22;;;13.70;99.90;;;;;;4976195;28;20026;-75
2021/10/05 09:34:42;;;;;;;0.10;0.10;;;13.90;99.90;;;;;;4959716;28;20420;-76
2021/10/05 09:37:15;;;;;;;0.35;0.35;;;14.10;99.90;;;;;;4993406;28;20018;-75
2021/10/05 09:39:51;;;;;;;0.82;0.68;;;14.20;99.90;;;;;;4976061;28;20474;-75
2021/10/05 09:42:25;;;;;;;0.10;0.10;;;14.00;99.90;;;;;;4993347;28;20034;-75
2021/10/05 09:44:56;;;;;;;0.20;0.20;;;14.00;99.90;;;;;;4993232;28;20014;-75
2021/10/05 09:47:39;;;;;;;1.60;0.95;;;14.30;99.90;;;;;;4992522;28;20077;-74
2021/10/05 09:50:18;;;;;;;0.10;0.10;;;14.30;99.90;;;;;;4977564;28;20034;-76
2021/10/05 09:52:54;;;;;;;0.10;0.10;;;14.30;99.90;;;;;;4959615;28;20034;-76
2021/10/05 09:55:24;;;;;;;6.13;2.47;;;14.20;99.90;;;;;;4993201;28;20030;-76
2021/10/05 09:57:52;;;;;;;2.10;1.95;;;13.90;99.90;;;;;;4975731;28;20034;-75
2021/10/05 10:00:19;;;;;;;1.25;0.68;;;13.90;99.90;;;;;;4975725;28;20031;-74
2021/10/05 10:02:46;;;;;;;2.83;1.65;;;13.90;99.90;;;;;;4994468;28;20033;-76
2021/10/05 10:05:14;;;;;;;0.10;0.10;;;14.00;99.90;;;;;;4966537;28;20058;-75
2021/10/05 10:07:42;;;;;;;0.88;0.40;;;14.00;99.90;;;;;;5004300;28;20018;-76
2021/10/05 10:10:10;;;;;;;2.75;1.48;;;14.10;99.90;;;;;;5009901;28;20055;-75
2021/10/05 10:12:50;;;;;;;0.20;0.20;;;14.30;99.90;;;;;;4956508;28;20121;-75
2021/10/05 10:15:17;;;;;;;0.40;0.40;;;14.20;99.90;;;;;;4955425;28;20031;-75
2021/10/05 10:17:44;;;;;;;2.40;1.23;;;14.30;99.90;;;;;;5005753;28;20423;-76
2021/10/05 10:20:26;;;;;;;3.33;1.65;;;15.00;99.90;;;;;;5001261;28;20033;-75
2021/10/05 10:22:53;;;;;;;1.10;0.95;;;15.80;99.90;;;;;;4996184;28;20509;-76
2021/10/05 10:25:31;;;;;;;0.88;0.88;;;15.80;99.90;;;;;;4992362;28;20026;-76
2021/10/05 10:28:13;;;;;;;0.10;0.10;;;15.40;99.90;;;;;;4992376;28;20050;-76
2021/10/05 10:30:51;;;;;;;0.20;0.20;;;15.40;99.90;;;;;;4974995;28;20158;-76
2021/10/05 10:33:19;;;;;;;0.10;0.10;;;15.40;99.90;;;;;;4992478;28;20026;-75
2021/10/05 10:35:53;;;;;;;0.30;0.30;;;15.10;99.90;;;;;;4958494;28;20076;-76
2021/10/05 10:38:31;;;;;;;0.10;0.10;;;15.10;99.90;;;;;;4972906;28;20027;-76
2021/10/05 10:40:58;;;;;;;0.10;0.10;;;15.00;99.90;;;;;;4986897;28;20344;-76
2021/10/05 10:43:27;;;;;;;0.30;0.30;;;15.20;99.90;;;;;;5007735;28;20098;-75
2021/10/05 10:45:56;;;;;;;1.98;1.65;;;15.10;99.90;;;;;;4991849;28;20204;-76
2021/10/05 10:48:31;;;;;;;0.13;0.13;;;15.00;99.90;;;;;;4974600;28;20022;-75
2021/10/05 10:51:00;;;;;;;0.10;0.10;;;15.10;99.90;;;;;;4974842;28;20057;-76
2021/10/05 10:53:38;;;;;;;0.20;0.20;;;15.30;99.90;;;;;;4992097;28;20030;-76
2021/10/05 10:56:05;;;;;;;1.33;0.40;;;15.50;99.90;;;;;;4991915;28;20030;-76
2021/10/05 10:58:40;;;;;;;0.10;0.10;;;15.50;99.90;;;;;;4992035;28;20047;-76
2021/10/05 11:01:08;;;;;;;0.47;0.47;;;15.40;99.90;;;;;;4957558;28;20033;-76
2021/10/05 11:03:34;;;;;;;0.20;0.20;;;15.50;99.90;;;;;;4991809;28;20517;-76
2021/10/05 11:06:00;;;;;;;0.20;0.20;;;15.50;99.90;;;;;;4973966;28;20030;-76
2021/10/05 11:08:26;;;;;;;0.20;0.20;;;15.40;99.90;;;;;;4974342;28;20022;-75
2021/10/05 11:10:52;;;;;;;0.70;0.70;;;15.40;99.90;;;;;;4974532;28;20030;-76
2021/10/05 11:13:18;;;;;;;0.10;0.10;;;15.30;99.90;;;;;;4992051;28;20490;-75
2021/10/05 11:15:48;;;;;;;0.10;0.10;;;15.40;99.90;;;;;;4974394;28;20117;-75
2021/10/05 11:18:19;;;;;;;0.10;0.10;;;15.50;99.90;;;;;;4974529;28;20040;-76
2021/10/05 11:20:48;;;;;;;0.10;0.10;;;15.50;99.90;;;;;;4993607;28;20022;-75
2021/10/05 11:23:15;;;;;;;0.63;0.60;;;15.40;99.90;;;;;;4978395;28;20482;-75
2021/10/05 11:25:48;;;;;;;0.10;0.10;;;15.50;99.90;;;;;;4995608;28;20154;-76
2021/10/05 11:28:16;;;;;;;0.40;0.30;;;15.60;99.90;;;;;;4978250;28;20022;-76
2021/10/05 11:31:00;;;;;;;0.35;0.35;;;15.20;99.90;;;;;;4995586;28;20026;-76
2021/10/05 11:33:30;;;;;;;0.10;0.10;;;15.20;99.90;;;;;;4995097;28;20026;-76
2021/10/05 11:36:00;;;;;;;1.35;1.25;;;15.40;99.90;;;;;;4995375;28;20298;-76
2021/10/05 11:38:44;;;;;;;0.10;0.10;;;15.60;99.90;;;;;;4977794;28;20406;-76
2021/10/05 11:41:10;;;;;;;0.10;0.10;;;15.70;99.90;;;;;;4992085;28;20019;-76
2021/10/05 11:43:42;;;;;;;0.60;0.60;;;15.90;99.90;;;;;;4950710;28;20022;-76
2021/10/05 11:46:17;;;;;;;0.30;0.30;;;15.90;99.90;;;;;;4988835;28;20085;-76
2021/10/05 11:48:48;;;;;;;0.20;0.20;;;15.80;99.90;;;;;;4977881;28;20031;-76
2021/10/05 11:51:16;;;;;;;0.10;0.10;;;15.80;99.90;;;;;;4958693;28;20030;-76
2021/10/05 11:53:43;;;;;;;0.60;0.40;;;15.60;99.90;;;;;;4958388;28;20030;-76
2021/10/05 11:56:11;;;;;;;0.10;0.10;;;15.40;99.90;;;;;;4975599;28;20038;-75
2021/10/05 11:58:40;;;;;;;0.10;0.10;;;15.20;99.90;;;;;;4974494;28;20097;-74
2021/10/05 12:01:22;;;;;;;0.10;0.10;;;15.20;99.90;;;;;;4975563;28;20027;-74
2021/10/05 12:03:50;;;;;;;1.05;0.95;;;15.20;99.90;;;;;;4957992;28;20034;-74
2021/10/05 12:06:41;;;;;;;0.43;0.28;;;15.10;99.90;;;;;;4975140;28;20070;-74
2021/10/05 12:09:14;;;;;;;0.10;0.10;;;15.20;99.90;;;;;;4957986;28;20071;-74
2021/10/05 12:11:44;;;;;;;0.10;0.10;;;15.40;99.90;;;;;;4975427;28;20173;-74
2021/10/05 12:14:11;;;;;;;0.20;0.20;;;15.60;99.90;;;;;;4975347;28;20037;-74
2021/10/05 12:16:53;;;;;;;0.30;0.30;;;15.60;99.90;;;;;;4975028;28;20490;-74
2021/10/05 12:19:34;;;;;;;0.10;0.10;;;15.50;99.90;;;;;;4975285;28;20033;-74
2021/10/05 12:22:02;;;;;;;0.20;0.20;;;15.50;99.90;;;;;;4975169;28;20507;-74
2021/10/05 12:24:59;;;;;;;0.10;0.10;;;15.50;99.90;;;;;;4957743;28;20099;-74
2021/10/05 12:27:24;;;;;;;0.10;0.10;;;15.50;99.90;;;;;;4959302;28;20042;-73
2021/10/05 12:30:00;;;;;;;0.10;0.10;;;15.50;99.90;;;;;;4957892;28;20031;-74
2021/10/05 12:32:38;;;;;;;0.10;0.10;;;15.50;99.90;;;;;;4957814;28;20094;-74
2021/10/05 12:35:25;;;;;;;0.10;0.10;;;15.70;99.90;;;;;;4975060;28;20063;-75
2021/10/05 12:38:01;;;;;;;0.10;0.10;;;15.70;99.90;;;;;;4975259;28;20143;-74
2021/10/05 12:40:37;;;;;;;0.10;0.10;;;15.70;99.90;;;;;;4957755;28;20038;-74
2021/10/05 12:43:04;;;;;;;0.10;0.10;;;15.70;99.90;;;;;;4942079;28;20488;-74
2021/10/05 12:45:30;;;;;;;0.10;0.10;;;15.60;99.90;;;;;;4974596;28;20054;-74
2021/10/05 12:47:58;;;;;;;0.10;0.10;;;15.80;99.90;;;;;;4974796;28;20023;-75
2021/10/05 12:50:31;;;;;;;0.10;0.10;;;15.80;99.90;;;;;;4974979;28;20471;-75